EmailTwitter


Observations de surface / Québec / CYMX

Régions: Québec | Canada | États-Unis | Europe | France | UK | Ailleurs
Station
Affichage
Infos & localisation pour CYMX | Aide pour décoder les METARs

Observations prises le 2019-01-16 à 07H00 UTC à MONTREAL MIRABEL, QB (CYMX)

Etat du ciel: couvert.

Obstacle(s) à la visibilité: faible bruine verglaçante et neige.

Température: -1.0 Celsius

Point de rosée: -2.0 Celsius

Humidité relative: 93%

Facteur vent: -6.

Facteur vent (rafales): -8.

Vents: Sud-sud-ouest à 19 km/h ou 10 noeuds.

Rafale du vent: 33 km/h ou 18 noeuds.

Pression au niveau moyen de la mer: 101.03 kilopascals.

Calage altimétrique: 100.98 kilopascals ou 29.82 pouces de mercure.

Visibilité horizontale: 8.00 milles terrestres ou 12.80 kilomètres.

Hauteur du plafond: 305 mètres ( 1000 pieds ).

Observation METAR:

CYMX 160700Z 20010G18KT 8SM -FZDZ -SN OVC010 M01/M02 A2982 RMK SF8 SLP103=